Time;durP1;ratioP1;P1;durP2;ratioP2;P2;SDS_P1;SDS_P2;PMS_P1;PMS_P2;Temp;Humidity;BMP_temperature;BMP_pressure;BME280_temperature;BME280_humidity;BME280_pressure;Samples;Min_cycle;Max_cycle;Signal;HPM_P1;HPM_P2
2024/04/04 00:00:26;;;;;;;18.57;16.80;;;;;;;;;;5031246;28;20522;-77
2024/04/04 00:02:53;;;;;;;18.03;16.93;;;;;;;;;;5031870;28;20455;-78
2024/04/04 00:05:19;;;;;;;17.23;16.27;;;;;;;;;;5029580;28;20462;-78
2024/04/04 00:07:46;;;;;;;18.33;17.20;;;;;;;;;;5032325;28;20824;-78
2024/04/04 00:10:12;;;;;;;18.57;17.40;;;;;;;;;;5028441;28;21270;-78
2024/04/04 00:12:42;;;;;;;18.37;17.17;;;;;;;;;;5012770;28;20473;-78
2024/04/04 00:15:08;;;;;;;18.53;17.50;;;;;;;;;;5014387;28;20498;-77
2024/04/04 00:17:36;;;;;;;19.07;17.90;;;;;;;;;;5032658;28;20436;-78
2024/04/04 00:20:02;;;;;;;18.10;17.10;;;;;;;;;;5031070;28;20494;-77
2024/04/04 00:22:29;;;;;;;18.67;17.47;;;;;;;;;;5015870;28;20619;-77
2024/04/04 00:24:55;;;;;;;18.40;17.37;;;;;;;;;;5012393;28;20444;-78
2024/04/04 00:27:22;;;;;;;18.27;17.27;;;;;;;;;;5017399;28;20459;-77
2024/04/04 00:29:49;;;;;;;18.10;16.97;;;;;;;;;;5017414;28;20479;-77
2024/04/04 00:32:15;;;;;;;17.97;16.97;;;;;;;;;;5031293;28;20484;-78
2024/04/04 00:34:43;;;;;;;18.30;17.30;;;;;;;;;;5032135;28;20493;-79
2024/04/04 00:37:10;;;;;;;18.87;17.77;;;;;;;;;;5032128;28;20542;-78
2024/04/04 00:39:36;;;;;;;17.43;16.43;;;;;;;;;;5019438;28;20515;-78
2024/04/04 00:42:04;;;;;;;18.73;17.53;;;;;;;;;;5022467;28;20502;-77
2024/04/04 00:44:30;;;;;;;18.27;17.40;;;;;;;;;;5032063;28;20448;-78
2024/04/04 00:46:57;;;;;;;17.37;16.57;;;;;;;;;;5026659;28;21266;-78
2024/04/04 00:49:23;;;;;;;18.33;17.30;;;;;;;;;;5011773;28;20442;-79
2024/04/04 00:51:51;;;;;;;18.03;17.03;;;;;;;;;;5011983;28;20877;-77
2024/04/04 00:54:19;;;;;;;18.73;17.60;;;;;;;;;;5027778;28;21014;-78
2024/04/04 00:56:46;;;;;;;17.53;16.70;;;;;;;;;;5032378;28;20876;-78
2024/04/04 00:59:13;;;;;;;17.73;16.70;;;;;;;;;;5030969;28;20452;-79
2024/04/04 01:01:42;;;;;;;17.93;16.90;;;;;;;;;;5033739;28;20807;-77
2024/04/04 01:04:08;;;;;;;17.43;16.47;;;;;;;;;;5035914;28;20462;-78
2024/04/04 01:06:35;;;;;;;17.87;16.80;;;;;;;;;;5034866;28;20498;-78
2024/04/04 01:09:03;;;;;;;17.73;16.63;;;;;;;;;;5035210;28;20451;-78
2024/04/04 01:11:29;;;;;;;18.70;17.20;;;;;;;;;;5034749;28;20487;-78
2024/04/04 01:13:56;;;;;;;17.93;17.00;;;;;;;;;;5018122;28;20453;-78
2024/04/04 01:16:23;;;;;;;18.17;17.17;;;;;;;;;;5015649;28;20449;-77
2024/04/04 01:18:49;;;;;;;17.37;16.47;;;;;;;;;;5015224;28;20499;-77
2024/04/04 01:21:18;;;;;;;18.10;16.93;;;;;;;;;;5015622;28;20476;-78
2024/04/04 01:23:45;;;;;;;17.90;16.83;;;;;;;;;;5015563;28;20471;-77
2024/04/04 01:26:14;;;;;;;18.50;17.00;;;;;;;;;;5015556;28;20449;-78
2024/04/04 01:28:40;;;;;;;18.50;17.50;;;;;;;;;;5015535;28;20504;-78
2024/04/04 01:31:07;;;;;;;18.13;16.90;;;;;;;;;;5014571;28;20506;-78
2024/04/04 01:33:33;;;;;;;18.10;16.70;;;;;;;;;;5015811;28;20983;-78
2024/04/04 01:36:00;;;;;;;18.03;17.10;;;;;;;;;;5015501;28;20445;-77
2024/04/04 01:38:26;;;;;;;18.70;17.50;;;;;;;;;;5020321;28;20484;-78
2024/04/04 01:40:54;;;;;;;18.30;16.97;;;;;;;;;;5035070;28;20471;-78
2024/04/04 01:43:20;;;;;;;18.70;17.60;;;;;;;;;;5034931;28;20440;-77
2024/04/04 01:45:47;;;;;;;17.23;16.43;;;;;;;;;;5034647;28;20418;-77
2024/04/04 01:48:14;;;;;;;18.50;17.27;;;;;;;;;;5034067;28;20964;-79
2024/04/04 01:50:41;;;;;;;18.27;17.37;;;;;;;;;;5034673;28;20431;-78
2024/04/04 01:53:07;;;;;;;18.70;17.50;;;;;;;;;;5034614;28;20445;-78
2024/04/04 01:55:34;;;;;;;18.10;17.10;;;;;;;;;;5034029;28;20463;-78
2024/04/04 01:58:01;;;;;;;18.53;17.40;;;;;;;;;;5034559;28;20512;-78
2024/04/04 02:00:28;;;;;;;18.57;17.33;;;;;;;;;;5034081;28;20472;-77
2024/04/04 02:02:54;;;;;;;18.83;17.47;;;;;;;;;;5034209;28;20448;-77
2024/04/04 02:05:21;;;;;;;18.73;17.40;;;;;;;;;;5033944;28;20463;-78
2024/04/04 02:07:47;;;;;;;19.13;17.50;;;;;;;;;;5034169;28;20484;-79
2024/04/04 02:10:14;;;;;;;18.40;17.20;;;;;;;;;;5032983;28;20459;-78
2024/04/04 02:12:41;;;;;;;17.27;16.47;;;;;;;;;;5030832;28;20475;-78
2024/04/04 02:15:10;;;;;;;18.10;17.03;;;;;;;;;;5024391;28;20519;-77
2024/04/04 02:17:36;;;;;;;17.87;16.87;;;;;;;;;;5033360;28;20485;-76
2024/04/04 02:20:05;;;;;;;17.87;16.60;;;;;;;;;;5032933;28;20459;-77
2024/04/04 02:22:31;;;;;;;17.33;16.43;;;;;;;;;;5033147;28;20471;-77
2024/04/04 02:24:58;;;;;;;17.37;16.37;;;;;;;;;;5032870;28;20899;-77
2024/04/04 02:27:24;;;;;;;17.53;16.60;;;;;;;;;;5032951;28;20861;-79
2024/04/04 02:29:51;;;;;;;18.20;17.00;;;;;;;;;;5032480;28;20455;-77
2024/04/04 02:32:18;;;;;;;20.20;18.27;;;;;;;;;;5032868;28;20525;-78
2024/04/04 02:34:45;;;;;;;17.97;16.73;;;;;;;;;;5032649;28;20476;-77
2024/04/04 02:37:11;;;;;;;17.97;16.47;;;;;;;;;;5032614;28;20455;-76
2024/04/04 02:39:38;;;;;;;18.97;17.63;;;;;;;;;;5032456;28;20440;-77
2024/04/04 02:42:04;;;;;;;17.77;16.77;;;;;;;;;;5032840;28;20522;-77
2024/04/04 02:44:31;;;;;;;17.80;16.80;;;;;;;;;;5032606;28;20861;-77
2024/04/04 02:46:58;;;;;;;17.97;16.57;;;;;;;;;;5032901;28;21002;-77
2024/04/04 02:49:27;;;;;;;18.23;17.00;;;;;;;;;;5045080;28;20439;-78
2024/04/04 02:51:53;;;;;;;17.70;16.60;;;;;;;;;;5049464;28;20490;-77
2024/04/04 02:54:20;;;;;;;18.97;17.50;;;;;;;;;;5019125;28;20473;-77
2024/04/04 02:56:47;;;;;;;18.23;16.50;;;;;;;;;;5027619;28;20462;-78
2024/04/04 02:59:14;;;;;;;17.87;16.67;;;;;;;;;;5031970;28;20458;-78
2024/04/04 03:01:40;;;;;;;17.93;16.93;;;;;;;;;;5032437;28;20533;-77
2024/04/04 03:04:07;;;;;;;17.90;16.80;;;;;;;;;;5032857;28;20520;-79
2024/04/04 03:06:35;;;;;;;18.40;17.27;;;;;;;;;;5032561;28;20416;-78
2024/04/04 03:09:07;;;;;;;17.43;16.23;;;;;;;;;;5032894;28;20509;-78
2024/04/04 03:11:34;;;;;;;16.97;16.10;;;;;;;;;;5032923;28;20739;-78
2024/04/04 03:14:01;;;;;;;17.30;16.30;;;;;;;;;;5032892;28;20861;-77
2024/04/04 03:16:27;;;;;;;18.17;16.90;;;;;;;;;;5032496;28;20460;-79
2024/04/04 03:18:54;;;;;;;17.37;16.37;;;;;;;;;;5032490;28;20450;-78
2024/04/04 03:21:20;;;;;;;17.57;16.60;;;;;;;;;;5012919;28;20501;-77
2024/04/04 03:23:48;;;;;;;18.40;17.20;;;;;;;;;;5026567;28;20471;-77
2024/04/04 03:26:14;;;;;;;18.33;17.07;;;;;;;;;;5032926;28;20463;-78
2024/04/04 03:28:41;;;;;;;18.73;17.23;;;;;;;;;;5031603;28;20479;-77
2024/04/04 03:31:08;;;;;;;18.60;17.40;;;;;;;;;;5032345;28;20522;-77
2024/04/04 03:33:35;;;;;;;19.13;17.93;;;;;;;;;;5032235;28;20455;-77
2024/04/04 03:36:02;;;;;;;18.27;17.27;;;;;;;;;;5032349;28;20497;-78
2024/04/04 03:38:29;;;;;;;19.27;17.50;;;;;;;;;;5031912;28;20480;-77
2024/04/04 03:40:58;;;;;;;18.60;17.03;;;;;;;;;;5032098;28;20578;-79
2024/04/04 03:43:25;;;;;;;18.30;16.90;;;;;;;;;;5029783;28;20468;-77
2024/04/04 03:45:51;;;;;;;17.63;16.73;;;;;;;;;;5032348;28;20435;-78
2024/04/04 03:48:18;;;;;;;17.50;16.53;;;;;;;;;;5031917;28;20501;-77
2024/04/04 03:50:45;;;;;;;18.47;16.87;;;;;;;;;;5032472;28;20453;-78
2024/04/04 03:53:12;;;;;;;17.07;16.17;;;;;;;;;;5032517;28;20817;-78
2024/04/04 03:55:39;;;;;;;18.13;16.83;;;;;;;;;;5032314;28;20505;-78
2024/04/04 03:58:06;;;;;;;18.33;17.10;;;;;;;;;;5031987;28;20451;-78
2024/04/04 04:00:33;;;;;;;18.57;17.17;;;;;;;;;;5031888;28;20448;-78
2024/04/04 04:02:59;;;;;;;19.27;18.07;;;;;;;;;;5032549;28;20421;-78
2024/04/04 04:05:26;;;;;;;19.73;18.33;;;;;;;;;;5032588;28;20538;-78
2024/04/04 04:07:52;;;;;;;19.13;17.70;;;;;;;;;;5032642;28;20537;-77
2024/04/04 04:10:19;;;;;;;18.50;17.40;;;;;;;;;;5031555;28;20453;-77
2024/04/04 04:12:47;;;;;;;18.43;17.33;;;;;;;;;;5031898;28;20472;-77
2024/04/04 04:15:16;;;;;;;19.20;17.93;;;;;;;;;;5031734;28;20778;-78
2024/04/04 04:17:42;;;;;;;18.73;17.40;;;;;;;;;;5032312;28;20463;-77
2024/04/04 04:22:50;;;;;;;19.30;17.80;;;;;;;;;;5030630;28;20472;-77
2024/04/04 04:25:17;;;;;;;19.53;18.23;;;;;;;;;;5031290;28;20436;-78
2024/04/04 04:27:43;;;;;;;18.80;17.60;;;;;;;;;;5031994;28;20483;-77
2024/04/04 04:30:11;;;;;;;18.80;17.77;;;;;;;;;;5030990;28;20443;-78
2024/04/04 04:32:38;;;;;;;18.67;17.60;;;;;;;;;;5032435;28;20514;-79
2024/04/04 04:35:06;;;;;;;19.73;18.20;;;;;;;;;;5032253;28;20939;-78
2024/04/04 04:37:32;;;;;;;18.13;17.13;;;;;;;;;;5035224;28;20935;-77
2024/04/04 04:39:59;;;;;;;18.73;17.67;;;;;;;;;;5018719;28;20503;-77
2024/04/04 04:42:25;;;;;;;18.37;17.27;;;;;;;;;;5016267;28;20531;-77
2024/04/04 04:44:52;;;;;;;18.53;17.50;;;;;;;;;;5016053;28;20456;-78
2024/04/04 04:47:18;;;;;;;18.67;17.40;;;;;;;;;;5015626;28;20983;-77
2024/04/04 04:49:46;;;;;;;18.83;17.63;;;;;;;;;;5031139;28;22464;-77
2024/04/04 04:52:12;;;;;;;18.80;17.70;;;;;;;;;;5035641;28;21018;-78
2024/04/04 04:54:39;;;;;;;18.97;17.80;;;;;;;;;;5017050;28;20527;-74
2024/04/04 04:57:05;;;;;;;19.77;18.23;;;;;;;;;;5013393;28;21195;-73
2024/04/04 04:59:32;;;;;;;19.87;18.50;;;;;;;;;;5012497;28;20462;-74
2024/04/04 05:01:59;;;;;;;18.47;17.10;;;;;;;;;;5012833;28;20468;-76
2024/04/04 05:04:26;;;;;;;18.40;17.07;;;;;;;;;;5013106;28;20455;-75
2024/04/04 05:06:54;;;;;;;18.50;17.20;;;;;;;;;;5013217;28;20938;-74
2024/04/04 05:09:21;;;;;;;18.90;17.57;;;;;;;;;;5012262;28;21047;-74
2024/04/04 05:11:47;;;;;;;18.87;17.67;;;;;;;;;;5012643;28;21039;-74
2024/04/04 05:14:14;;;;;;;19.33;18.13;;;;;;;;;;5012393;28;20445;-75
2024/04/04 05:16:41;;;;;;;19.57;18.03;;;;;;;;;;5012889;28;20453;-75
2024/04/04 05:19:08;;;;;;;18.40;17.20;;;;;;;;;;5019401;28;20481;-75
2024/04/04 05:21:35;;;;;;;17.97;16.97;;;;;;;;;;5012881;28;20487;-74
2024/04/04 05:24:03;;;;;;;18.63;17.50;;;;;;;;;;5013225;28;20463;-74
2024/04/04 05:26:29;;;;;;;19.77;18.07;;;;;;;;;;5012847;28;20488;-74
2024/04/04 05:28:56;;;;;;;17.80;16.73;;;;;;;;;;5012436;28;20602;-74
2024/04/04 05:31:22;;;;;;;18.20;17.10;;;;;;;;;;5012097;28;20488;-74
2024/04/04 05:33:49;;;;;;;19.43;17.83;;;;;;;;;;5012488;28;20424;-75
2024/04/04 05:36:15;;;;;;;18.43;17.33;;;;;;;;;;5012657;28;20521;-74
2024/04/04 05:38:42;;;;;;;18.17;17.07;;;;;;;;;;5012381;28;20419;-75
2024/04/04 05:41:10;;;;;;;19.00;17.43;;;;;;;;;;5012533;28;20439;-75
2024/04/04 05:43:37;;;;;;;19.20;17.97;;;;;;;;;;5012297;28;20453;-75
2024/04/04 05:46:03;;;;;;;19.20;17.77;;;;;;;;;;5012271;28;20983;-74
2024/04/04 05:48:30;;;;;;;19.67;18.47;;;;;;;;;;5011796;28;20567;-74
2024/04/04 05:51:00;;;;;;;19.63;18.33;;;;;;;;;;5013024;28;21038;-73
2024/04/04 05:53:27;;;;;;;19.93;18.83;;;;;;;;;;5031558;28;21183;-74
2024/04/04 05:55:53;;;;;;;21.37;19.80;;;;;;;;;;5031636;28;20992;-74
2024/04/04 05:58:21;;;;;;;20.10;19.00;;;;;;;;;;5031564;28;20451;-74
2024/04/04 06:00:47;;;;;;;20.37;19.17;;;;;;;;;;5031699;28;20439;-74
2024/04/04 06:03:14;;;;;;;20.53;19.27;;;;;;;;;;5031419;28;20471;-75
2024/04/04 06:05:40;;;;;;;21.07;19.87;;;;;;;;;;5026329;28;20949;-75
2024/04/04 06:08:08;;;;;;;21.70;20.13;;;;;;;;;;5011244;28;20481;-75
2024/04/04 06:10:34;;;;;;;21.73;20.10;;;;;;;;;;5011847;28;20476;-74
2024/04/04 06:13:01;;;;;;;20.30;19.20;;;;;;;;;;5011719;28;20455;-74
2024/04/04 06:15:29;;;;;;;21.17;19.70;;;;;;;;;;5015664;28;20486;-75
2024/04/04 06:17:56;;;;;;;22.17;20.60;;;;;;;;;;5030068;28;21072;-73
2024/04/04 06:20:23;;;;;;;20.80;19.50;;;;;;;;;;5029350;28;20461;-76
2024/04/04 06:22:50;;;;;;;21.80;20.60;;;;;;;;;;5025918;28;20499;-74
2024/04/04 06:25:17;;;;;;;21.40;20.10;;;;;;;;;;5030892;28;20444;-76
2024/04/04 06:27:44;;;;;;;22.37;21.17;;;;;;;;;;5030376;28;20575;-74
2024/04/04 06:30:10;;;;;;;21.53;20.23;;;;;;;;;;5029004;28;20550;-75
2024/04/04 06:32:38;;;;;;;21.10;19.60;;;;;;;;;;5030983;28;20471;-75
2024/04/04 06:35:05;;;;;;;21.33;19.90;;;;;;;;;;5030166;28;20456;-74
2024/04/04 06:37:32;;;;;;;21.00;19.70;;;;;;;;;;5030859;28;20452;-75
2024/04/04 06:39:58;;;;;;;22.00;20.80;;;;;;;;;;5030438;28;20952;-74
2024/04/04 06:42:25;;;;;;;20.57;19.30;;;;;;;;;;5030619;28;20468;-74
2024/04/04 06:44:52;;;;;;;21.27;19.80;;;;;;;;;;5030495;28;20444;-75
2024/04/04 06:47:19;;;;;;;21.10;19.90;;;;;;;;;;5029907;28;20460;-74
2024/04/04 06:49:46;;;;;;;21.13;19.50;;;;;;;;;;5029663;28;20816;-75
2024/04/04 06:52:13;;;;;;;19.90;19.00;;;;;;;;;;5030182;28;20567;-76
2024/04/04 06:54:39;;;;;;;22.17;21.00;;;;;;;;;;5030521;28;20431;-75
2024/04/04 06:57:06;;;;;;;21.77;20.23;;;;;;;;;;5030693;28;20502;-74
2024/04/04 06:59:32;;;;;;;21.43;20.23;;;;;;;;;;5028512;28;21186;-74
2024/04/04 07:01:59;;;;;;;20.90;19.80;;;;;;;;;;5030360;28;20478;-74
2024/04/04 07:04:25;;;;;;;20.23;19.07;;;;;;;;;;5030441;28;20504;-75
2024/04/04 07:06:54;;;;;;;20.60;19.47;;;;;;;;;;5028546;28;20471;-73
2024/04/04 07:09:20;;;;;;;21.13;20.03;;;;;;;;;;5011306;28;20513;-74
2024/04/04 07:11:47;;;;;;;19.97;18.80;;;;;;;;;;5011072;28;20477;-75
2024/04/04 07:14:13;;;;;;;20.37;19.27;;;;;;;;;;5011760;28;20488;-74
2024/04/04 07:16:40;;;;;;;20.13;19.00;;;;;;;;;;5010517;28;20782;-75
2024/04/04 07:19:08;;;;;;;21.67;20.67;;;;;;;;;;5013756;28;20463;-74
2024/04/04 07:21:35;;;;;;;21.17;20.00;;;;;;;;;;5009818;28;20999;-75
2024/04/04 07:24:04;;;;;;;22.17;20.87;;;;;;;;;;5010781;28;20824;-74
2024/04/04 07:26:31;;;;;;;20.50;19.50;;;;;;;;;;5010992;28;20540;-74
2024/04/04 07:28:57;;;;;;;21.73;20.63;;;;;;;;;;5010504;28;20583;-76
2024/04/04 07:31:24;;;;;;;21.47;20.17;;;;;;;;;;5010960;28;20468;-74
2024/04/04 07:33:50;;;;;;;21.47;20.37;;;;;;;;;;5021117;28;20905;-74
2024/04/04 07:36:17;;;;;;;22.63;21.23;;;;;;;;;;5030511;28;20469;-74
2024/04/04 07:38:43;;;;;;;21.40;20.27;;;;;;;;;;5016858;28;20457;-75
2024/04/04 07:41:12;;;;;;;22.27;21.20;;;;;;;;;;5030668;28;20481;-75
2024/04/04 07:43:39;;;;;;;23.73;22.53;;;;;;;;;;5030514;28;20462;-74
2024/04/04 07:46:07;;;;;;;24.33;23.13;;;;;;;;;;5030607;28;20451;-75
2024/04/04 07:48:34;;;;;;;25.63;24.10;;;;;;;;;;5028905;28;20487;-75
2024/04/04 07:51:00;;;;;;;27.03;25.27;;;;;;;;;;5029760;28;20463;-76
2024/04/04 07:53:26;;;;;;;26.60;25.03;;;;;;;;;;5029875;28;20423;-74
2024/04/04 07:55:53;;;;;;;28.13;26.53;;;;;;;;;;5029310;28;20786;-75
2024/04/04 07:58:21;;;;;;;28.43;26.83;;;;;;;;;;5028947;28;20967;-74
2024/04/04 08:00:48;;;;;;;26.43;24.93;;;;;;;;;;5029960;28;20464;-74
2024/04/04 08:03:14;;;;;;;27.90;26.50;;;;;;;;;;5029902;28;20545;-79
2024/04/04 08:05:41;;;;;;;28.33;26.83;;;;;;;;;;5030213;28;20458;-75
2024/04/04 08:08:07;;;;;;;30.37;28.60;;;;;;;;;;5028995;28;20529;-74
2024/04/04 08:10:35;;;;;;;30.80;29.10;;;;;;;;;;5030995;28;20447;-79
2024/04/04 08:13:02;;;;;;;29.00;27.60;;;;;;;;;;5036506;28;20594;-78
2024/04/04 08:15:30;;;;;;;31.67;29.77;;;;;;;;;;5032234;28;20484;-81
2024/04/04 08:17:56;;;;;;;31.47;29.87;;;;;;;;;;5034222;28;20458;-75
2024/04/04 08:20:23;;;;;;;35.03;32.63;;;;;;;;;;5032980;28;20457;-75
2024/04/04 08:22:51;;;;;;;32.50;30.70;;;;;;;;;;5048656;28;20461;-74
2024/04/04 08:25:18;;;;;;;32.97;31.13;;;;;;;;;;5053370;28;20443;-75
2024/04/04 08:27:44;;;;;;;32.20;30.60;;;;;;;;;;5025983;28;20464;-75
2024/04/04 08:30:12;;;;;;;34.63;32.53;;;;;;;;;;5033189;28;20483;-74
2024/04/04 08:32:39;;;;;;;33.77;31.90;;;;;;;;;;5031448;28;20479;-75
2024/04/04 08:35:08;;;;;;;32.17;30.57;;;;;;;;;;5048283;28;20606;-76
2024/04/04 08:37:35;;;;;;;33.00;31.40;;;;;;;;;;5053533;28;20971;-76
2024/04/04 08:40:03;;;;;;;36.00;33.67;;;;;;;;;;5041442;28;20475;-75
2024/04/04 08:42:30;;;;;;;36.50;34.67;;;;;;;;;;5033861;28;20471;-74
2024/04/04 08:44:58;;;;;;;37.40;35.27;;;;;;;;;;5041569;28;20462;-74
2024/04/04 08:47:24;;;;;;;33.63;31.93;;;;;;;;;;5033187;28;20463;-75
2024/04/04 08:49:53;;;;;;;34.07;32.13;;;;;;;;;;5034108;28;20846;-75
2024/04/04 08:52:19;;;;;;;33.17;31.50;;;;;;;;;;5055105;28;20462;-82
2024/04/04 08:54:46;;;;;;;32.40;30.60;;;;;;;;;;5035574;28;20564;-83
2024/04/04 08:57:12;;;;;;;32.93;31.23;;;;;;;;;;5034676;28;20525;-79
2024/04/04 08:59:39;;;;;;;33.90;32.00;;;;;;;;;;5034981;28;20843;-79
2024/04/04 09:02:05;;;;;;;32.53;30.63;;;;;;;;;;5039208;28;21049;-78
2024/04/04 09:04:32;;;;;;;32.87;31.27;;;;;;;;;;5034879;28;20452;-78
2024/04/04 09:06:59;;;;;;;34.77;32.97;;;;;;;;;;5033939;28;20451;-79
2024/04/04 09:09:27;;;;;;;32.40;30.80;;;;;;;;;;5031944;28;20488;-76
2024/04/04 09:11:54;;;;;;;34.53;32.63;;;;;;;;;;5027944;28;20485;-76
2024/04/04 09:14:21;;;;;;;36.97;34.87;;;;;;;;;;5023896;28;20438;-77
2024/04/04 09:16:47;;;;;;;35.90;33.87;;;;;;;;;;5025289;28;20523;-76
2024/04/04 09:19:15;;;;;;;37.30;35.33;;;;;;;;;;5027602;28;20451;-76
2024/04/04 09:21:44;;;;;;;35.80;34.00;;;;;;;;;;5020666;28;20991;-76
2024/04/04 09:24:13;;;;;;;38.17;36.00;;;;;;;;;;5021587;28;20835;-76
2024/04/04 09:26:39;;;;;;;39.57;37.37;;;;;;;;;;5016063;28;20471;-76
2024/04/04 09:29:06;;;;;;;38.43;36.43;;;;;;;;;;5031088;28;20493;-76
2024/04/04 09:31:33;;;;;;;39.20;37.00;;;;;;;;;;5030873;28;20458;-75
2024/04/04 09:34:00;;;;;;;37.93;35.53;;;;;;;;;;5032292;28;20448;-76
2024/04/04 09:36:29;;;;;;;38.63;36.27;;;;;;;;;;5031975;28;20830;-75
2024/04/04 09:38:57;;;;;;;41.23;38.73;;;;;;;;;;5026510;28;20432;-76
2024/04/04 09:41:24;;;;;;;41.27;39.27;;;;;;;;;;5026983;28;20529;-76
2024/04/04 09:43:55;;;;;;;42.70;40.20;;;;;;;;;;5026459;28;20598;-75
2024/04/04 09:46:22;;;;;;;40.60;38.50;;;;;;;;;;5032276;28;20414;-76
2024/04/04 09:48:50;;;;;;;40.90;38.80;;;;;;;;;;5031547;28;20496;-77
2024/04/04 09:51:16;;;;;;;43.37;40.87;;;;;;;;;;5031025;28;20547;-76
2024/04/04 09:53:44;;;;;;;43.90;41.10;;;;;;;;;;4996784;28;1003745;-77
2024/04/04 09:56:10;;;;;;;45.50;42.40;;;;;;;;;;5032854;28;20429;-77
2024/04/04 09:58:41;;;;;;;46.73;43.80;;;;;;;;;;5032140;28;20476;-77
2024/04/04 10:01:18;;;;;;;64.60;60.90;;;;;;;;;;5031908;28;20476;-76
2024/04/04 10:03:49;;;;;;;60.40;57.10;;;;;;;;;;5033369;28;20778;-77
2024/04/04 10:06:28;;;;;;;57.07;53.70;;;;;;;;;;5032314;28;20451;-80
2024/04/04 10:08:55;;;;;;;55.53;52.40;;;;;;;;;;5031869;28;20566;-75
2024/04/04 10:11:28;;;;;;;57.23;54.23;;;;;;;;;;5032262;28;20473;-77
2024/04/04 10:13:56;;;;;;;58.00;55.00;;;;;;;;;;5032162;28;20790;-77
2024/04/04 10:16:44;;;;;;;56.10;52.90;;;;;;;;;;5031633;28;20476;-76
2024/04/04 10:19:11;;;;;;;55.73;52.57;;;;;;;;;;5026497;28;20952;-76
2024/04/04 10:21:37;;;;;;;47.73;45.50;;;;;;;;;;5032418;28;21033;-76
2024/04/04 10:24:04;;;;;;;48.67;46.17;;;;;;;;;;5032317;28;20776;-76
2024/04/04 10:26:30;;;;;;;36.57;34.87;;;;;;;;;;5032618;28;20475;-77
2024/04/04 10:28:59;;;;;;;37.13;34.97;;;;;;;;;;5031983;28;20558;-77
2024/04/04 10:31:25;;;;;;;33.67;32.10;;;;;;;;;;5033190;28;20499;-75
2024/04/04 10:34:01;;;;;;;34.50;32.80;;;;;;;;;;5031943;28;20462;-77
2024/04/04 10:36:37;;;;;;;32.40;30.90;;;;;;;;;;5032819;28;20436;-77
2024/04/04 10:39:07;;;;;;;29.83;28.43;;;;;;;;;;5032501;28;20809;-77
2024/04/04 10:41:33;;;;;;;26.17;24.87;;;;;;;;;;5033285;28;20980;-78
2024/04/04 10:44:02;;;;;;;24.73;23.53;;;;;;;;;;5033926;28;20457;-78
2024/04/04 10:46:29;;;;;;;23.17;22.10;;;;;;;;;;5033278;28;20502;-78
2024/04/04 10:48:56;;;;;;;22.90;22.00;;;;;;;;;;5033022;28;20455;-78
2024/04/04 10:51:22;;;;;;;21.20;20.20;;;;;;;;;;5033867;28;20473;-78
2024/04/04 10:53:51;;;;;;;20.63;19.83;;;;;;;;;;5033426;28;20454;-77
2024/04/04 10:56:17;;;;;;;19.00;18.30;;;;;;;;;;5032569;28;20523;-76
2024/04/04 10:58:45;;;;;;;19.10;18.30;;;;;;;;;;5032430;28;20813;-77
2024/04/04 11:01:13;;;;;;;19.00;18.20;;;;;;;;;;5033755;28;20473;-77
2024/04/04 11:03:40;;;;;;;17.77;16.87;;;;;;;;;;5032708;28;20460;-76
2024/04/04 11:06:06;;;;;;;19.40;18.60;;;;;;;;;;5032281;28;20456;-78
2024/04/04 11:08:33;;;;;;;18.30;17.50;;;;;;;;;;5031937;28;20453;-77
2024/04/04 11:10:59;;;;;;;18.17;17.30;;;;;;;;;;5032373;28;20776;-77
2024/04/04 11:13:28;;;;;;;17.10;16.40;;;;;;;;;;5032707;28;20460;-77
2024/04/04 11:15:55;;;;;;;17.73;16.73;;;;;;;;;;5032318;28;20451;-77
2024/04/04 11:18:23;;;;;;;17.43;16.63;;;;;;;;;;5031697;28;20551;-77
2024/04/04 11:20:49;;;;;;;15.70;15.10;;;;;;;;;;5032326;28;20471;-76
2024/04/04 11:23:16;;;;;;;15.90;15.20;;;;;;;;;;5032521;28;20451;-77
2024/04/04 11:25:42;;;;;;;16.90;16.13;;;;;;;;;;5031921;28;20503;-77
2024/04/04 11:28:09;;;;;;;16.13;15.43;;;;;;;;;;5032197;28;20444;-77
2024/04/04 11:30:35;;;;;;;17.30;16.20;;;;;;;;;;5031449;28;20510;-77
2024/04/04 11:33:02;;;;;;;16.07;15.37;;;;;;;;;;5031536;28;20818;-77
2024/04/04 11:35:29;;;;;;;16.87;16.07;;;;;;;;;;5032301;28;20814;-77
2024/04/04 11:37:56;;;;;;;17.00;16.20;;;;;;;;;;5031728;28;20912;-77
2024/04/04 11:40:23;;;;;;;16.30;15.60;;;;;;;;;;5030432;28;20492;-78
2024/04/04 11:42:49;;;;;;;16.73;15.90;;;;;;;;;;5031445;28;20566;-77
2024/04/04 11:45:16;;;;;;;16.77;15.93;;;;;;;;;;5032483;28;20448;-77
2024/04/04 11:47:46;;;;;;;16.30;15.60;;;;;;;;;;5032630;28;20440;-77
2024/04/04 11:50:13;;;;;;;17.30;16.50;;;;;;;;;;5030546;28;20519;-76
2024/04/04 11:52:41;;;;;;;16.90;16.10;;;;;;;;;;5016394;28;20488;-77
2024/04/04 11:55:07;;;;;;;16.70;15.80;;;;;;;;;;5011615;28;20489;-77
2024/04/04 11:57:34;;;;;;;17.63;16.43;;;;;;;;;;5011533;28;20445;-77
2024/04/04 12:00:00;;;;;;;17.93;17.03;;;;;;;;;;5010984;28;20930;-78
2024/04/04 12:02:27;;;;;;;16.87;16.07;;;;;;;;;;5011675;28;20474;-77
2024/04/04 12:04:53;;;;;;;17.50;16.70;;;;;;;;;;5011591;28;20450;-78
2024/04/04 12:07:20;;;;;;;18.03;17.13;;;;;;;;;;5011963;28;20499;-76
2024/04/04 12:09:47;;;;;;;17.87;16.87;;;;;;;;;;5019056;28;20505;-75
2024/04/04 12:12:14;;;;;;;17.97;17.07;;;;;;;;;;5027424;28;20459;-77
2024/04/04 12:14:41;;;;;;;18.10;17.20;;;;;;;;;;5031089;28;20512;-77
2024/04/04 12:17:16;;;;;;;18.33;17.33;;;;;;;;;;5030991;28;20946;-76
2024/04/04 12:19:42;;;;;;;17.87;16.80;;;;;;;;;;5031161;28;20477;-77
2024/04/04 12:22:09;;;;;;;18.30;17.20;;;;;;;;;;5029657;28;20987;-77
2024/04/04 12:24:35;;;;;;;17.93;17.03;;;;;;;;;;5031386;28;20441;-77
2024/04/04 12:27:05;;;;;;;18.33;17.37;;;;;;;;;;5031019;28;20559;-77
2024/04/04 12:29:31;;;;;;;18.40;17.40;;;;;;;;;;5010224;28;21377;-76
2024/04/04 12:31:58;;;;;;;19.30;18.20;;;;;;;;;;5010795;28;20893;-77
2024/04/04 12:34:24;;;;;;;18.43;17.50;;;;;;;;;;5011301;28;20523;-76
2024/04/04 12:36:51;;;;;;;19.47;18.17;;;;;;;;;;5010915;28;20985;-77
2024/04/04 12:39:17;;;;;;;18.57;17.57;;;;;;;;;;5010511;28;20925;-77
2024/04/04 12:41:44;;;;;;;19.27;18.07;;;;;;;;;;5011488;28;20467;-78
2024/04/04 12:44:11;;;;;;;19.57;18.37;;;;;;;;;;5012132;28;20448;-78
2024/04/04 12:46:39;;;;;;;18.27;17.37;;;;;;;;;;5015411;28;20567;-77
2024/04/04 12:49:07;;;;;;;18.27;17.27;;;;;;;;;;5011759;28;20506;-77
2024/04/04 12:51:34;;;;;;;19.40;18.17;;;;;;;;;;5011929;28;20548;-76
2024/04/04 12:54:02;;;;;;;18.90;17.90;;;;;;;;;;5029541;28;20457;-76
2024/04/04 12:56:29;;;;;;;19.47;18.27;;;;;;;;;;5030951;28;20840;-78
2024/04/04 12:58:55;;;;;;;19.77;18.57;;;;;;;;;;5034008;28;20479;-76
2024/04/04 13:01:23;;;;;;;19.27;18.17;;;;;;;;;;5034027;28;20595;-77
2024/04/04 13:03:49;;;;;;;21.30;20.00;;;;;;;;;;5034819;28;20506;-78
2024/04/04 13:06:16;;;;;;;19.63;18.53;;;;;;;;;;5033776;28;20456;-77
2024/04/04 13:08:44;;;;;;;20.50;18.93;;;;;;;;;;5034677;28;20459;-77
2024/04/04 13:11:10;;;;;;;20.33;19.03;;;;;;;;;;5034985;28;20471;-77
2024/04/04 13:13:36;;;;;;;19.70;18.40;;;;;;;;;;5034903;28;20485;-77
2024/04/04 13:16:04;;;;;;;19.90;18.77;;;;;;;;;;5035002;28;20933;-76
2024/04/04 13:18:31;;;;;;;19.63;18.60;;;;;;;;;;5033730;28;20463;-76
2024/04/04 13:20:59;;;;;;;19.17;18.17;;;;;;;;;;5034028;28;20982;-77
2024/04/04 13:23:25;;;;;;;20.17;19.07;;;;;;;;;;5034446;28;20455;-77
2024/04/04 13:25:52;;;;;;;20.10;18.90;;;;;;;;;;5034356;28;21019;-77
2024/04/04 13:28:18;;;;;;;20.33;19.00;;;;;;;;;;5021742;28;20882;-77
2024/04/04 13:30:45;;;;;;;20.47;19.27;;;;;;;;;;5014745;28;20576;-77
2024/04/04 13:33:11;;;;;;;39.87;36.43;;;;;;;;;;5016588;28;20462;-77
2024/04/04 13:35:40;;;;;;;24.87;23.27;;;;;;;;;;5035584;28;20456;-77
2024/04/04 13:38:06;;;;;;;20.33;19.00;;;;;;;;;;5034776;28;20445;-77
2024/04/04 13:40:33;;;;;;;20.50;19.40;;;;;;;;;;5034645;28;20456;-78
2024/04/04 13:42:59;;;;;;;21.70;20.50;;;;;;;;;;5033106;28;20488;-74
2024/04/04 13:45:26;;;;;;;21.30;20.20;;;;;;;;;;5032882;28;20444;-76
2024/04/04 13:47:53;;;;;;;21.93;20.53;;;;;;;;;;5033036;28;20445;-75
2024/04/04 13:50:20;;;;;;;21.43;20.10;;;;;;;;;;5032336;28;20486;-79
2024/04/04 13:52:48;;;;;;;21.30;20.20;;;;;;;;;;5014971;28;20456;-74
2024/04/04 13:55:15;;;;;;;20.57;19.47;;;;;;;;;;5028416;28;20463;-75
2024/04/04 13:57:41;;;;;;;21.40;20.20;;;;;;;;;;5031915;28;20478;-76
2024/04/04 14:00:09;;;;;;;22.30;20.80;;;;;;;;;;5030939;28;20843;-77
2024/04/04 14:02:36;;;;;;;21.47;20.13;;;;;;;;;;5032602;28;20463;-76
2024/04/04 14:05:03;;;;;;;22.03;20.73;;;;;;;;;;5032881;28;20453;-76
2024/04/04 14:07:29;;;;;;;21.27;19.77;;;;;;;;;;5032545;28;20516;-76
2024/04/04 14:09:58;;;;;;;21.10;20.00;;;;;;;;;;5031924;28;20981;-75
2024/04/04 14:12:24;;;;;;;20.60;19.50;;;;;;;;;;5032291;28;20469;-76
2024/04/04 14:14:51;;;;;;;21.57;20.27;;;;;;;;;;5032433;28;20456;-76
2024/04/04 14:17:18;;;;;;;21.10;19.90;;;;;;;;;;5032768;28;20454;-75